createdAt,value
2018-10-17T00:00:21.864Z,100.00
2018-10-17T00:03:26.180Z,100.00
2018-10-17T00:06:30.502Z,100.00
2018-10-17T00:09:34.811Z,100.00
2018-10-17T00:12:39.736Z,100.00
2018-10-17T00:15:44.113Z,100.00
2018-10-17T00:18:48.423Z,100.00
2018-10-17T00:21:52.747Z,100.00
2018-10-17T00:24:57.101Z,100.00
2018-10-17T00:28:01.711Z,100.00
2018-10-17T00:31:06.527Z,100.00
2018-10-17T00:34:10.851Z,100.00
2018-10-17T00:37:15.258Z,100.00
2018-10-17T00:40:19.758Z,100.00
2018-10-17T00:43:24.083Z,100.00
2018-10-17T00:46:28.428Z,100.00
2018-10-17T00:49:32.738Z,100.00
2018-10-17T00:52:37.128Z,100.00
2018-10-17T00:55:41.468Z,100.00
2018-10-17T00:59:11.622Z,100.00
2018-10-17T01:02:15.829Z,100.00
2018-10-17T01:05:20.133Z,100.00
2018-10-17T01:08:24.456Z,100.00
2018-10-17T01:11:29.204Z,100.00
2018-10-17T01:14:33.560Z,100.00
2018-10-17T01:17:38.911Z,100.00
2018-10-17T01:20:43.237Z,100.00
2018-10-17T01:23:47.546Z,100.00
2018-10-17T01:26:51.876Z,100.00
2018-10-17T01:29:56.203Z,100.00
2018-10-17T01:33:00.497Z,100.00
2018-10-17T01:36:04.862Z,100.00
2018-10-17T01:39:10.459Z,100.00
2018-10-17T01:42:14.728Z,100.00
2018-10-17T01:45:19.057Z,100.00
2018-10-17T01:48:23.413Z,100.00
2018-10-17T01:51:27.714Z,100.00
2018-10-17T01:54:32.009Z,100.00
2018-10-17T01:57:36.840Z,100.00
2018-10-17T02:00:41.162Z,100.00
2018-10-17T02:03:45.464Z,100.00
2018-10-17T02:06:49.759Z,100.00
2018-10-17T02:09:54.094Z,100.00
2018-10-17T02:12:58.429Z,100.00
2018-10-17T02:16:03.169Z,100.00
2018-10-17T02:19:07.505Z,100.00
2018-10-17T02:22:11.779Z,100.00
2018-10-17T02:25:16.131Z,100.00
2018-10-17T02:28:20.430Z,100.00
2018-10-17T02:31:24.806Z,100.00
2018-10-17T02:34:29.124Z,100.00
2018-10-17T02:37:33.420Z,100.00
2018-10-17T02:40:37.753Z,100.00
2018-10-17T02:43:42.081Z,100.00
2018-10-17T02:46:46.365Z,100.00
2018-10-17T02:49:50.683Z,100.00
2018-10-17T02:52:55.081Z,100.00
2018-10-17T02:55:59.336Z,100.00
2018-10-17T02:59:03.713Z,100.00
2018-10-17T03:02:07.911Z,100.00
2018-10-17T03:05:12.270Z,98.68
2018-10-17T03:08:16.529Z,98.39
2018-10-17T03:11:20.900Z,100.00
2018-10-17T03:14:25.183Z,100.00
2018-10-17T03:17:29.753Z,100.00
2018-10-17T03:20:34.085Z,100.00
2018-10-17T03:27:10.153Z,100.00
2018-10-17T03:30:14.449Z,100.00
2018-10-17T03:33:18.881Z,100.00
2018-10-17T03:36:24.205Z,100.00
2018-10-17T03:39:28.711Z,100.00
2018-10-17T03:42:32.993Z,100.00
2018-10-17T03:45:38.250Z,100.00
2018-10-17T03:48:42.706Z,100.00
2018-10-17T03:51:47.753Z,100.00
2018-10-17T03:54:53.034Z,100.00
2018-10-17T03:57:57.503Z,100.00
2018-10-17T04:01:03.155Z,100.00
2018-10-17T04:04:07.502Z,100.00
2018-10-17T04:07:12.370Z,100.00
2018-10-17T04:10:16.975Z,100.00
2018-10-17T04:13:22.355Z,100.00
2018-10-17T04:16:27.038Z,100.00
2018-10-17T04:19:32.693Z,100.00
2018-10-17T04:22:37.158Z,100.00
2018-10-17T04:25:41.423Z,100.00
2018-10-17T04:28:46.649Z,100.00
2018-10-17T04:31:51.153Z,100.00
2018-10-17T04:34:55.613Z,100.00
2018-10-17T04:38:00.153Z,100.00
2018-10-17T04:41:04.462Z,100.00
2018-10-17T04:44:10.697Z,100.00
2018-10-17T04:47:15.075Z,100.00
2018-10-17T04:50:19.606Z,100.00
2018-10-17T04:53:23.917Z,100.00
2018-10-17T04:56:28.937Z,100.00
2018-10-17T04:59:33.311Z,100.00
2018-10-17T05:02:39.660Z,100.00
2018-10-17T05:05:44.009Z,100.00
2018-10-17T05:08:48.525Z,100.00
2018-10-17T05:11:53.134Z,100.00
2018-10-17T05:14:57.575Z,100.00
2018-10-17T05:18:02.007Z,100.00
2018-10-17T05:21:06.517Z,100.00
2018-10-17T05:24:11.050Z,100.00
2018-10-17T05:27:15.530Z,100.00
2018-10-17T05:30:19.841Z,100.00
2018-10-17T05:33:24.180Z,100.00
2018-10-17T05:36:28.514Z,100.00
2018-10-17T05:39:32.867Z,100.00
2018-10-17T05:42:37.254Z,100.00
2018-10-17T05:45:41.681Z,100.00
2018-10-17T05:48:46.125Z,100.00
2018-10-17T05:51:50.457Z,100.00
2018-10-17T05:54:54.552Z,100.00
2018-10-17T05:57:59.279Z,100.00
2018-10-17T06:01:05.563Z,100.00
2018-10-17T06:04:10.989Z,100.00
2018-10-17T06:07:15.418Z,100.00
2018-10-17T06:10:19.975Z,100.00
2018-10-17T06:13:24.496Z,100.00
2018-10-17T06:16:28.924Z,100.00
2018-10-17T06:19:34.157Z,100.00
2018-10-17T06:22:39.167Z,100.00
2018-10-17T06:25:43.512Z,100.00
2018-10-17T06:28:48.085Z,100.00
2018-10-17T06:31:52.521Z,100.00
2018-10-17T06:34:56.900Z,100.00
2018-10-17T06:38:01.606Z,100.00
2018-10-17T06:41:06.644Z,100.00
2018-10-17T06:44:11.141Z,100.00
2018-10-17T06:47:15.499Z,99.70
2018-10-17T06:50:19.918Z,98.88
2018-10-17T06:53:24.336Z,97.17
2018-10-17T06:56:28.819Z,94.55
2018-10-17T06:59:33.137Z,93.62
2018-10-17T07:02:38.740Z,93.33
2018-10-17T07:05:43.241Z,92.11
2018-10-17T07:08:48.788Z,89.68
2018-10-17T07:11:53.249Z,89.94
2018-10-17T07:14:57.686Z,89.12
2018-10-17T07:18:02.179Z,88.98
2018-10-17T07:21:06.602Z,88.24
2018-10-17T07:24:11.162Z,87.72
2018-10-17T07:27:15.618Z,86.59
2018-10-17T07:30:20.184Z,85.94
2018-10-17T07:33:24.524Z,85.84
2018-10-17T07:36:28.896Z,85.10
2018-10-17T07:39:33.572Z,83.76
2018-10-17T07:42:38.988Z,83.69
2018-10-17T07:45:43.336Z,82.14
2018-10-17T07:48:47.641Z,80.94
2018-10-17T07:51:51.944Z,80.01
2018-10-17T07:54:56.368Z,78.21
2018-10-17T07:58:00.874Z,77.07
2018-10-17T08:01:05.235Z,77.08
2018-10-17T08:04:09.722Z,77.35
2018-10-17T08:07:15.442Z,77.06
2018-10-17T08:10:20.385Z,76.59
2018-10-17T08:13:24.719Z,76.63
2018-10-17T08:16:29.000Z,75.82
2018-10-17T08:19:33.326Z,74.43
2018-10-17T08:22:40.203Z,73.66
2018-10-17T08:25:44.717Z,73.94
2018-10-17T08:28:49.237Z,73.02
2018-10-17T08:31:53.817Z,72.29
2018-10-17T08:34:58.145Z,72.23
2018-10-17T08:38:02.739Z,70.76
2018-10-17T08:41:06.938Z,69.64
2018-10-17T08:44:11.262Z,68.79
2018-10-17T08:47:15.694Z,67.79
2018-10-17T08:50:20.150Z,65.37
2018-10-17T08:53:24.576Z,65.24
2018-10-17T08:56:29.820Z,66.13
2018-10-17T08:59:34.353Z,69.56
2018-10-17T09:02:39.785Z,68.81
2018-10-17T09:05:44.163Z,69.29
2018-10-17T09:08:48.601Z,66.69
2018-10-17T09:11:52.984Z,66.79
2018-10-17T09:14:57.417Z,66.30
2018-10-17T09:18:01.728Z,65.14
2018-10-17T09:21:07.041Z,65.31
2018-10-17T09:24:10.996Z,64.43
2018-10-17T09:27:15.169Z,64.16
2018-10-17T09:30:19.676Z,65.82
2018-10-17T09:33:23.800Z,63.57
2018-10-17T09:36:28.076Z,63.31
2018-10-17T09:39:32.357Z,62.19
2018-10-17T09:42:36.662Z,61.85
2018-10-17T09:45:41.049Z,64.92
2018-10-17T09:48:45.447Z,63.43
2018-10-17T09:51:49.852Z,61.34
2018-10-17T09:54:54.338Z,59.50
2018-10-17T09:57:58.671Z,58.75
2018-10-17T10:01:08.341Z,62.43
2018-10-17T10:04:12.724Z,59.70
2018-10-17T10:07:17.333Z,59.89
2018-10-17T10:10:21.769Z,59.07
2018-10-17T10:13:26.141Z,57.20
2018-10-17T10:16:30.450Z,58.80
2018-10-17T10:19:34.784Z,59.87
2018-10-17T10:22:39.137Z,61.08
2018-10-17T10:25:43.461Z,58.75
2018-10-17T10:28:48.150Z,58.57
2018-10-17T10:31:52.513Z,57.22
2018-10-17T10:34:56.804Z,60.05
2018-10-17T10:38:01.222Z,59.24
2018-10-17T10:41:05.861Z,60.32
2018-10-17T10:44:10.267Z,61.18
2018-10-17T10:47:14.581Z,60.59
2018-10-17T10:50:19.041Z,61.45
2018-10-17T10:53:23.354Z,61.14
2018-10-17T10:56:27.776Z,60.78
2018-10-17T10:59:32.195Z,61.27
2018-10-17T11:02:36.394Z,62.34
2018-10-17T11:05:40.920Z,60.33
2018-10-17T11:08:45.489Z,58.93
2018-10-17T11:11:49.897Z,60.49
2018-10-17T11:14:54.375Z,58.86
2018-10-17T11:17:58.557Z,59.42
2018-10-17T11:21:02.853Z,61.09
2018-10-17T11:24:07.123Z,59.68
2018-10-17T11:27:11.666Z,61.31
2018-10-17T11:30:15.916Z,60.28
2018-10-17T11:33:20.237Z,60.63
2018-10-17T11:36:24.542Z,59.15
2018-10-17T11:39:28.822Z,61.07
2018-10-17T11:42:33.333Z,59.00
2018-10-17T11:45:40.186Z,59.19
2018-10-17T11:48:44.810Z,60.50
2018-10-17T11:51:49.109Z,60.48
2018-10-17T11:54:53.533Z,58.98
2018-10-17T11:57:58.018Z,58.92
2018-10-17T12:01:02.333Z,58.28
2018-10-17T12:04:07.010Z,58.45
2018-10-17T12:07:11.124Z,60.13
2018-10-17T12:10:16.115Z,59.13
2018-10-17T12:13:20.414Z,57.31
2018-10-17T12:16:24.953Z,57.06
2018-10-17T12:19:29.285Z,58.30
2018-10-17T12:22:33.612Z,57.51
2018-10-17T12:25:37.960Z,57.19
2018-10-17T12:28:42.431Z,56.40
2018-10-17T12:31:46.671Z,55.86
2018-10-17T12:34:51.107Z,55.99
2018-10-17T12:37:55.339Z,57.94
2018-10-17T12:40:59.848Z,57.59
2018-10-17T12:44:04.077Z,56.05
2018-10-17T12:47:08.460Z,57.52
2018-10-17T12:50:12.758Z,55.93
2018-10-17T12:53:17.119Z,58.03
2018-10-17T12:56:21.415Z,58.23
2018-10-17T12:59:25.849Z,56.89
2018-10-17T13:02:30.880Z,56.17
2018-10-17T13:05:35.558Z,58.70
2018-10-17T13:08:40.142Z,59.14
2018-10-17T13:11:44.682Z,56.45
2018-10-17T13:14:49.369Z,58.24
2018-10-17T13:17:53.977Z,57.17
2018-10-17T13:20:58.503Z,57.21
2018-10-17T13:24:03.122Z,59.57
2018-10-17T13:27:07.684Z,59.73
2018-10-17T13:30:12.117Z,59.99
2018-10-17T13:33:16.561Z,59.12
2018-10-17T13:36:20.968Z,59.96
2018-10-17T13:39:25.493Z,60.40
2018-10-17T13:42:29.932Z,59.95
2018-10-17T13:45:34.421Z,58.83
2018-10-17T13:48:38.948Z,59.38
2018-10-17T13:51:43.362Z,60.24
2018-10-17T13:54:47.796Z,60.25
2018-10-17T13:57:52.387Z,61.20
2018-10-17T14:00:56.725Z,60.53
2018-10-17T14:04:02.127Z,60.27
2018-10-17T14:07:09.319Z,60.45
2018-10-17T14:10:15.273Z,61.29
2018-10-17T14:13:23.267Z,61.48
2018-10-17T14:16:29.568Z,61.41
2018-10-17T14:19:33.948Z,62.24
2018-10-17T14:26:16.074Z,60.45
2018-10-17T14:29:20.626Z,61.86
2018-10-17T14:32:25.161Z,62.50
2018-10-17T14:35:29.491Z,61.48
2018-10-17T14:38:33.850Z,60.66
2018-10-17T14:41:38.217Z,61.45
2018-10-17T14:44:42.568Z,61.18
2018-10-17T14:47:47.019Z,61.68
2018-10-17T14:50:51.458Z,62.91
2018-10-17T14:53:55.909Z,62.81
2018-10-17T14:57:00.291Z,63.16
2018-10-17T15:00:05.744Z,64.24
2018-10-17T15:03:10.289Z,63.57
2018-10-17T15:06:14.612Z,64.22
2018-10-17T15:09:19.097Z,65.10
2018-10-17T15:12:23.440Z,64.56
2018-10-17T15:15:28.045Z,65.21
2018-10-17T15:18:32.534Z,64.89
2018-10-17T15:21:36.853Z,65.80
2018-10-17T15:28:20.231Z,66.06
2018-10-17T15:31:24.644Z,67.37
2018-10-17T15:34:28.977Z,66.95
2018-10-17T15:37:33.196Z,68.45
2018-10-17T15:40:37.710Z,69.18
2018-10-17T15:43:42.367Z,70.21
2018-10-17T15:46:46.746Z,71.01
2018-10-17T15:49:51.464Z,72.01
2018-10-17T15:52:56.117Z,72.83
2018-10-17T15:56:00.541Z,73.19
2018-10-17T15:59:05.154Z,74.11
2018-10-17T16:02:09.695Z,74.91
2018-10-17T16:05:14.326Z,75.90
2018-10-17T16:08:19.024Z,76.60
2018-10-17T16:11:23.421Z,77.72
2018-10-17T16:14:28.294Z,78.70
2018-10-17T16:17:32.874Z,79.39
2018-10-17T16:20:37.430Z,80.46
2018-10-17T16:23:41.910Z,81.16
2018-10-17T16:26:47.402Z,82.44
2018-10-17T16:29:51.981Z,83.36
2018-10-17T16:32:56.687Z,83.98
2018-10-17T16:36:01.241Z,85.00
2018-10-17T16:39:09.444Z,85.95
2018-10-17T16:42:13.807Z,87.03
2018-10-17T16:45:18.254Z,88.21
2018-10-17T16:48:22.805Z,89.16
2018-10-17T16:51:27.233Z,89.92
2018-10-17T16:54:31.645Z,90.65
2018-10-17T16:57:36.348Z,91.15
2018-10-17T17:00:40.686Z,91.95
2018-10-17T17:03:45.221Z,92.92
2018-10-17T17:06:49.674Z,93.44
2018-10-17T17:09:54.099Z,94.91
2018-10-17T17:12:58.527Z,95.46
2018-10-17T17:16:02.953Z,95.83
2018-10-17T17:19:07.377Z,96.48
2018-10-17T17:22:11.778Z,96.41
2018-10-17T17:25:16.361Z,96.63
2018-10-17T17:28:20.731Z,97.26
2018-10-17T17:31:25.149Z,97.59
2018-10-17T17:34:29.579Z,97.55
2018-10-17T17:37:34.029Z,98.17
2018-10-17T17:40:38.443Z,98.85
2018-10-17T17:43:42.845Z,98.90
2018-10-17T17:46:47.576Z,99.64
2018-10-17T17:49:51.848Z,99.72
2018-10-17T17:52:56.227Z,100.00
2018-10-17T17:56:00.564Z,100.00
2018-10-17T17:59:05.181Z,99.85
2018-10-17T18:02:09.687Z,100.00
2018-10-17T18:05:14.237Z,100.00
2018-10-17T18:08:18.806Z,100.00
2018-10-17T18:11:25.537Z,100.00
2018-10-17T18:14:29.999Z,100.00
2018-10-17T18:17:34.425Z,100.00
2018-10-17T18:20:38.801Z,100.00
2018-10-17T18:23:43.485Z,100.00
2018-10-17T18:27:18.461Z,99.81
2018-10-17T18:30:22.737Z,100.00
2018-10-17T18:33:27.258Z,100.00
2018-10-17T18:36:31.554Z,100.00
2018-10-17T18:39:35.976Z,100.00
2018-10-17T18:42:40.613Z,100.00
2018-10-17T18:45:45.595Z,100.00
2018-10-17T18:48:49.796Z,100.00
2018-10-17T18:51:54.258Z,100.00
2018-10-17T18:54:58.545Z,100.00
2018-10-17T18:58:02.852Z,100.00
2018-10-17T19:01:07.332Z,100.00
2018-10-17T19:04:11.705Z,100.00
2018-10-17T19:07:16.239Z,100.00
2018-10-17T19:10:20.830Z,100.00
2018-10-17T19:13:25.104Z,100.00
2018-10-17T19:16:29.415Z,100.00
2018-10-17T19:19:33.825Z,100.00
2018-10-17T19:22:39.286Z,100.00
2018-10-17T19:25:43.805Z,100.00
2018-10-17T19:28:48.150Z,100.00
2018-10-17T19:31:52.608Z,100.00
2018-10-17T19:34:56.915Z,100.00
2018-10-17T19:38:01.393Z,100.00
2018-10-17T19:41:05.874Z,100.00
2018-10-17T19:44:10.289Z,100.00
2018-10-17T19:47:14.826Z,100.00
2018-10-17T19:50:19.225Z,100.00
2018-10-17T19:53:23.565Z,100.00
2018-10-17T19:56:27.956Z,100.00
2018-10-17T19:59:32.406Z,100.00
2018-10-17T20:02:36.956Z,100.00
2018-10-17T20:05:41.337Z,100.00
2018-10-17T20:08:45.725Z,100.00
2018-10-17T20:11:50.361Z,100.00
2018-10-17T20:14:54.840Z,100.00
2018-10-17T20:17:59.200Z,100.00
2018-10-17T20:21:03.695Z,100.00
2018-10-17T20:24:08.029Z,100.00
2018-10-17T20:27:12.553Z,100.00
2018-10-17T20:30:16.898Z,100.00
2018-10-17T20:33:21.460Z,100.00
2018-10-17T20:36:25.957Z,100.00
2018-10-17T20:39:30.345Z,100.00
2018-10-17T20:42:34.704Z,100.00
2018-10-17T20:45:39.254Z,100.00
2018-10-17T20:48:43.618Z,100.00
2018-10-17T20:51:48.177Z,100.00
2018-10-17T20:54:52.670Z,100.00
2018-10-17T20:57:57.129Z,100.00
2018-10-17T21:01:02.188Z,100.00
2018-10-17T21:04:06.832Z,100.00
2018-10-17T21:07:11.188Z,100.00
2018-10-17T21:10:15.702Z,100.00
2018-10-17T21:13:20.182Z,100.00
2018-10-17T21:16:24.470Z,100.00
2018-10-17T21:19:28.769Z,100.00
2018-10-17T21:22:33.172Z,100.00
2018-10-17T21:25:37.589Z,100.00
2018-10-17T21:28:42.000Z,100.00
2018-10-17T21:31:46.473Z,100.00
2018-10-17T21:34:51.210Z,100.00
2018-10-17T21:37:55.668Z,100.00
2018-10-17T21:40:59.935Z,100.00
2018-10-17T21:44:04.387Z,100.00
2018-10-17T21:47:08.766Z,100.00
2018-10-17T21:50:13.268Z,100.00
2018-10-17T21:53:32.321Z,100.00
2018-10-17T21:56:37.001Z,100.00
2018-10-17T21:59:41.337Z,100.00
2018-10-17T22:02:45.731Z,100.00
2018-10-17T22:05:50.176Z,100.00
2018-10-17T22:08:54.657Z,100.00
2018-10-17T22:11:58.957Z,100.00
2018-10-17T22:15:03.300Z,100.00
2018-10-17T22:18:07.634Z,100.00
2018-10-17T22:21:12.233Z,100.00
2018-10-17T22:24:16.598Z,100.00
2018-10-17T22:27:21.112Z,100.00
2018-10-17T22:30:25.560Z,100.00
2018-10-17T22:33:29.882Z,100.00
2018-10-17T22:36:34.212Z,100.00
2018-10-17T22:39:38.524Z,100.00
2018-10-17T22:42:42.919Z,100.00
2018-10-17T22:45:47.268Z,100.00
2018-10-17T22:48:51.662Z,100.00
2018-10-17T22:51:55.946Z,100.00
2018-10-17T22:55:00.257Z,100.00
2018-10-17T22:58:04.793Z,100.00
2018-10-17T23:01:09.141Z,100.00
2018-10-17T23:04:13.462Z,100.00
2018-10-17T23:07:17.744Z,100.00
2018-10-17T23:10:22.037Z,100.00
2018-10-17T23:13:26.877Z,100.00
2018-10-17T23:16:31.184Z,100.00
2018-10-17T23:19:35.483Z,100.00
2018-10-17T23:22:40.940Z,100.00
2018-10-17T23:25:45.224Z,100.00
2018-10-17T23:28:49.541Z,100.00
2018-10-17T23:31:53.875Z,100.00
2018-10-17T23:34:58.201Z,100.00
2018-10-17T23:38:02.561Z,100.00
2018-10-17T23:41:07.054Z,100.00
2018-10-17T23:44:11.548Z,100.00
2018-10-17T23:47:15.769Z,100.00
2018-10-17T23:50:20.102Z,100.00
2018-10-17T23:53:24.410Z,100.00
2018-10-17T23:56:28.728Z,100.00
2018-10-17T23:59:33.037Z,100.00
